sensor_id;sensor_type;location;lat;lon;timestamp;temperature;humidity
25468;DHT22;13384;24.794;110.498;2022-10-28T00:01:07;22.60;89.30
25468;DHT22;13384;24.794;110.498;2022-10-28T00:03:58;22.50;90.00
25468;DHT22;13384;24.794;110.498;2022-10-28T00:06:47;22.60;90.40
25468;DHT22;13384;24.794;110.498;2022-10-28T00:09:16;22.50;89.90
25468;DHT22;13384;24.794;110.498;2022-10-28T00:11:45;22.50;90.00
25468;DHT22;13384;24.794;110.498;2022-10-28T00:14:37;22.60;89.90
25468;DHT22;13384;24.794;110.498;2022-10-28T00:17:17;22.50;89.80
25468;DHT22;13384;24.794;110.498;2022-10-28T00:20:08;22.50;89.60
25468;DHT22;13384;24.794;110.498;2022-10-28T00:22:39;22.40;90.40
25468;DHT22;13384;24.794;110.498;2022-10-28T00:25:10;22.40;90.00
25468;DHT22;13384;24.794;110.498;2022-10-28T00:28:05;22.50;89.30
25468;DHT22;13384;24.794;110.498;2022-10-28T00:31:01;22.50;89.40
25468;DHT22;13384;24.794;110.498;2022-10-28T00:33:59;22.70;90.40
25468;DHT22;13384;24.794;110.498;2022-10-28T00:36:51;22.60;89.60
25468;DHT22;13384;24.794;110.498;2022-10-28T00:39:58;22.70;90.10
25468;DHT22;13384;24.794;110.498;2022-10-28T00:42:50;22.70;89.00
25468;DHT22;13384;24.794;110.498;2022-10-28T00:45:18;22.70;88.90
25468;DHT22;13384;24.794;110.498;2022-10-28T00:48:01;22.60;89.50
25468;DHT22;13384;24.794;110.498;2022-10-28T00:50:47;22.60;89.10
25468;DHT22;13384;24.794;110.498;2022-10-28T00:53:45;22.40;89.80
25468;DHT22;13384;24.794;110.498;2022-10-28T00:56:41;22.40;89.50
25468;DHT22;13384;24.794;110.498;2022-10-28T00:59:38;22.40;90.10
25468;DHT22;13384;24.794;110.498;2022-10-28T01:02:36;22.40;89.00
25468;DHT22;13384;24.794;110.498;2022-10-28T01:05:35;22.50;89.90
25468;DHT22;13384;24.794;110.498;2022-10-28T01:08:07;22.60;89.50
25468;DHT22;13384;24.794;110.498;2022-10-28T01:14:48;22.60;90.10
25468;DHT22;13384;24.794;110.498;2022-10-28T01:20:51;22.70;88.90
25468;DHT22;13384;24.794;110.498;2022-10-28T01:41:46;22.80;88.30
25468;DHT22;13384;24.794;110.498;2022-10-28T01:47:29;22.70;88.50
25468;DHT22;13384;24.794;110.498;2022-10-28T01:50:36;22.70;88.50
25468;DHT22;13384;24.794;110.498;2022-10-28T01:53:16;22.60;88.80
25468;DHT22;13384;24.794;110.498;2022-10-28T01:56:06;22.70;89.40
25468;DHT22;13384;24.794;110.498;2022-10-28T01:58:38;22.70;88.90
25468;DHT22;13384;24.794;110.498;2022-10-28T02:01:32;22.70;88.80
25468;DHT22;13384;24.794;110.498;2022-10-28T02:04:24;22.70;88.20
25468;DHT22;13384;24.794;110.498;2022-10-28T02:07:34;22.70;89.30
25468;DHT22;13384;24.794;110.498;2022-10-28T02:13:58;22.90;88.20
25468;DHT22;13384;24.794;110.498;2022-10-28T02:16:48;22.90;87.50
25468;DHT22;13384;24.794;110.498;2022-10-28T02:20:08;22.90;88.20
25468;DHT22;13384;24.794;110.498;2022-10-28T02:29:37;22.90;88.90
25468;DHT22;13384;24.794;110.498;2022-10-28T02:32:25;22.90;88.20
25468;DHT22;13384;24.794;110.498;2022-10-28T02:35:35;22.90;88.20
25468;DHT22;13384;24.794;110.498;2022-10-28T02:38:32;23.00;87.60
25468;DHT22;13384;24.794;110.498;2022-10-28T02:41:11;23.00;87.40
25468;DHT22;13384;24.794;110.498;2022-10-28T02:43:43;23.10;87.40
25468;DHT22;13384;24.794;110.498;2022-10-28T02:46:16;23.10;87.70
25468;DHT22;13384;24.794;110.498;2022-10-28T02:49:11;23.10;87.50
25468;DHT22;13384;24.794;110.498;2022-10-28T02:52:26;23.10;87.30
25468;DHT22;13384;24.794;110.498;2022-10-28T02:55:20;23.10;87.70
25468;DHT22;13384;24.794;110.498;2022-10-28T02:58:13;23.10;86.90
25468;DHT22;13384;24.794;110.498;2022-10-28T03:00:46;23.20;87.20
25468;DHT22;13384;24.794;110.498;2022-10-28T03:03:16;23.20;87.00
25468;DHT22;13384;24.794;110.498;2022-10-28T03:06:05;23.20;87.20
25468;DHT22;13384;24.794;110.498;2022-10-28T03:08:54;23.20;87.00
25468;DHT22;13384;24.794;110.498;2022-10-28T03:11:45;23.20;86.90
25468;DHT22;13384;24.794;110.498;2022-10-28T03:14:34;23.20;86.70
25468;DHT22;13384;24.794;110.498;2022-10-28T03:17:35;23.20;87.60
25468;DHT22;13384;24.794;110.498;2022-10-28T03:20:04;23.30;87.90
25468;DHT22;13384;24.794;110.498;2022-10-28T03:22:53;23.30;87.60
25468;DHT22;13384;24.794;110.498;2022-10-28T03:25:32;23.30;87.30
25468;DHT22;13384;24.794;110.498;2022-10-28T03:28:03;23.30;86.70
25468;DHT22;13384;24.794;110.498;2022-10-28T03:31:00;23.30;86.80
25468;DHT22;13384;24.794;110.498;2022-10-28T03:33:32;23.30;86.80
25468;DHT22;13384;24.794;110.498;2022-10-28T03:36:32;23.30;87.10
25468;DHT22;13384;24.794;110.498;2022-10-28T03:39:51;23.30;86.10
25468;DHT22;13384;24.794;110.498;2022-10-28T03:42:42;23.30;87.00
25468;DHT22;13384;24.794;110.498;2022-10-28T03:45:33;23.30;87.10
25468;DHT22;13384;24.794;110.498;2022-10-28T03:48:30;23.30;87.60
25468;DHT22;13384;24.794;110.498;2022-10-28T03:51:40;23.30;87.20
25468;DHT22;13384;24.794;110.498;2022-10-28T03:54:11;23.30;87.20
25468;DHT22;13384;24.794;110.498;2022-10-28T03:57:02;23.30;87.30
25468;DHT22;13384;24.794;110.498;2022-10-28T03:59:34;23.30;87.60
25468;DHT22;13384;24.794;110.498;2022-10-28T04:02:05;23.30;87.40
25468;DHT22;13384;24.794;110.498;2022-10-28T04:05:05;23.30;86.60
25468;DHT22;13384;24.794;110.498;2022-10-28T04:08:10;23.30;87.00
25468;DHT22;13384;24.794;110.498;2022-10-28T04:10:39;23.30;87.60
25468;DHT22;13384;24.794;110.498;2022-10-28T04:13:27;23.30;87.20
25468;DHT22;13384;24.794;110.498;2022-10-28T04:16:02;23.30;87.30
25468;DHT22;13384;24.794;110.498;2022-10-28T04:18:31;23.30;85.90
25468;DHT22;13384;24.794;110.498;2022-10-28T04:21:26;23.30;85.80
25468;DHT22;13384;24.794;110.498;2022-10-28T04:23:55;23.30;86.40
25468;DHT22;13384;24.794;110.498;2022-10-28T04:26:38;23.40;87.00
25468;DHT22;13384;24.794;110.498;2022-10-28T04:29:42;23.30;87.10
25468;DHT22;13384;24.794;110.498;2022-10-28T04:32:11;23.40;87.50
25468;DHT22;13384;24.794;110.498;2022-10-28T04:34:39;23.40;87.60
25468;DHT22;13384;24.794;110.498;2022-10-28T04:37:08;23.40;87.40
25468;DHT22;13384;24.794;110.498;2022-10-28T04:40:12;23.40;87.60
25468;DHT22;13384;24.794;110.498;2022-10-28T04:42:57;23.40;87.70
25468;DHT22;13384;24.794;110.498;2022-10-28T04:45:54;23.40;87.50
25468;DHT22;13384;24.794;110.498;2022-10-28T04:48:49;23.40;87.90
25468;DHT22;13384;24.794;110.498;2022-10-28T04:51:39;23.40;87.80
25468;DHT22;13384;24.794;110.498;2022-10-28T04:54:27;23.40;87.00
25468;DHT22;13384;24.794;110.498;2022-10-28T04:57:16;23.40;86.30
25468;DHT22;13384;24.794;110.498;2022-10-28T04:59:59;23.40;87.50
25468;DHT22;13384;24.794;110.498;2022-10-28T05:02:30;23.30;85.40
25468;DHT22;13384;24.794;110.498;2022-10-28T05:05:01;23.40;86.60
25468;DHT22;13384;24.794;110.498;2022-10-28T05:07:53;23.40;86.30
25468;DHT22;13384;24.794;110.498;2022-10-28T05:10:44;23.40;86.30
25468;DHT22;13384;24.794;110.498;2022-10-28T05:13:19;23.40;86.70
25468;DHT22;13384;24.794;110.498;2022-10-28T05:16:10;23.40;86.30
25468;DHT22;13384;24.794;110.498;2022-10-28T05:18:41;23.30;85.80
25468;DHT22;13384;24.794;110.498;2022-10-28T05:21:40;23.40;86.30
25468;DHT22;13384;24.794;110.498;2022-10-28T05:24:34;23.30;86.70
25468;DHT22;13384;24.794;110.498;2022-10-28T05:27:05;23.30;86.90
25468;DHT22;13384;24.794;110.498;2022-10-28T05:29:36;23.40;87.10
25468;DHT22;13384;24.794;110.498;2022-10-28T05:32:29;23.40;87.10
25468;DHT22;13384;24.794;110.498;2022-10-28T05:35:24;23.30;86.60
25468;DHT22;13384;24.794;110.498;2022-10-28T05:38:16;23.30;87.30
25468;DHT22;13384;24.794;110.498;2022-10-28T05:41:11;23.40;86.70
25468;DHT22;13384;24.794;110.498;2022-10-28T05:44:24;23.40;87.50
25468;DHT22;13384;24.794;110.498;2022-10-28T05:47:16;23.40;87.70
25468;DHT22;13384;24.794;110.498;2022-10-28T05:49:45;23.40;87.80
25468;DHT22;13384;24.794;110.498;2022-10-28T05:52:34;23.40;88.10
25468;DHT22;13384;24.794;110.498;2022-10-28T05:55:03;23.40;88.00
25468;DHT22;13384;24.794;110.498;2022-10-28T05:57:57;23.40;87.30
25468;DHT22;13384;24.794;110.498;2022-10-28T06:00:47;23.40;87.80
25468;DHT22;13384;24.794;110.498;2022-10-28T06:03:15;23.40;87.30
25468;DHT22;13384;24.794;110.498;2022-10-28T06:05:45;23.40;87.30
25468;DHT22;13384;24.794;110.498;2022-10-28T06:08:36;23.40;87.70
25468;DHT22;13384;24.794;110.498;2022-10-28T06:11:28;23.40;87.60
25468;DHT22;13384;24.794;110.498;2022-10-28T06:13:56;23.40;88.00
25468;DHT22;13384;24.794;110.498;2022-10-28T06:16:25;23.50;88.20
25468;DHT22;13384;24.794;110.498;2022-10-28T06:19:17;23.40;88.30
25468;DHT22;13384;24.794;110.498;2022-10-28T06:21:46;23.50;88.30
25468;DHT22;13384;24.794;110.498;2022-10-28T06:24:40;23.40;88.10
25468;DHT22;13384;24.794;110.498;2022-10-28T06:27:29;23.50;88.40
25468;DHT22;13384;24.794;110.498;2022-10-28T06:30:18;23.50;88.30
25468;DHT22;13384;24.794;110.498;2022-10-28T06:33:12;23.50;88.40
25468;DHT22;13384;24.794;110.498;2022-10-28T06:36:04;23.50;88.40
25468;DHT22;13384;24.794;110.498;2022-10-28T06:38:33;23.40;88.30
25468;DHT22;13384;24.794;110.498;2022-10-28T06:41:22;23.50;88.50
25468;DHT22;13384;24.794;110.498;2022-10-28T06:43:51;23.50;88.60
25468;DHT22;13384;24.794;110.498;2022-10-28T06:46:40;23.50;88.60
25468;DHT22;13384;24.794;110.498;2022-10-28T06:49:09;23.50;88.60
25468;DHT22;13384;24.794;110.498;2022-10-28T06:52:03;23.50;88.60
25468;DHT22;13384;24.794;110.498;2022-10-28T06:54:54;23.50;88.70
25468;DHT22;13384;24.794;110.498;2022-10-28T06:57:48;23.50;88.60
25468;DHT22;13384;24.794;110.498;2022-10-28T07:00:37;23.50;88.10
25468;DHT22;13384;24.794;110.498;2022-10-28T07:03:17;23.50;88.40
25468;DHT22;13384;24.794;110.498;2022-10-28T07:05:48;23.50;88.60
25468;DHT22;13384;24.794;110.498;2022-10-28T07:08:46;23.50;88.80
25468;DHT22;13384;24.794;110.498;2022-10-28T07:11:42;23.50;88.60
25468;DHT22;13384;24.794;110.498;2022-10-28T07:14:46;23.50;88.80
25468;DHT22;13384;24.794;110.498;2022-10-28T07:17:39;23.50;88.80
25468;DHT22;13384;24.794;110.498;2022-10-28T07:20:33;23.50;88.50
25468;DHT22;13384;24.794;110.498;2022-10-28T07:23:24;23.50;88.60
25468;DHT22;13384;24.794;110.498;2022-10-28T07:26:16;23.50;88.70
25468;DHT22;13384;24.794;110.498;2022-10-28T07:29:01;23.50;88.70
25468;DHT22;13384;24.794;110.498;2022-10-28T07:31:31;23.50;88.90
25468;DHT22;13384;24.794;110.498;2022-10-28T07:34:40;23.60;88.60
25468;DHT22;13384;24.794;110.498;2022-10-28T07:37:29;23.60;88.80
25468;DHT22;13384;24.794;110.498;2022-10-28T07:39:58;23.60;89.00
25468;DHT22;13384;24.794;110.498;2022-10-28T07:42:46;23.60;88.80
25468;DHT22;13384;24.794;110.498;2022-10-28T07:45:39;23.60;88.80
25468;DHT22;13384;24.794;110.498;2022-10-28T07:48:34;23.60;88.90
25468;DHT22;13384;24.794;110.498;2022-10-28T07:51:05;23.60;88.40
25468;DHT22;13384;24.794;110.498;2022-10-28T07:54:00;23.60;88.70
25468;DHT22;13384;24.794;110.498;2022-10-28T07:56:32;23.60;88.30
25468;DHT22;13384;24.794;110.498;2022-10-28T07:59:03;23.60;87.50
25468;DHT22;13384;24.794;110.498;2022-10-28T08:01:59;23.60;87.30
25468;DHT22;13384;24.794;110.498;2022-10-28T08:04:50;23.60;88.10
25468;DHT22;13384;24.794;110.498;2022-10-28T08:07:21;23.60;88.40
25468;DHT22;13384;24.794;110.498;2022-10-28T08:09:52;23.60;88.70
25468;DHT22;13384;24.794;110.498;2022-10-28T08:12:24;23.60;88.40
25468;DHT22;13384;24.794;110.498;2022-10-28T08:15:16;23.60;88.00
25468;DHT22;13384;24.794;110.498;2022-10-28T08:18:13;23.60;88.40
25468;DHT22;13384;24.794;110.498;2022-10-28T08:21:10;23.60;88.40
25468;DHT22;13384;24.794;110.498;2022-10-28T08:23:41;23.60;88.00
25468;DHT22;13384;24.794;110.498;2022-10-28T08:26:39;23.60;87.60
25468;DHT22;13384;24.794;110.498;2022-10-28T08:29:10;23.60;87.90
25468;DHT22;13384;24.794;110.498;2022-10-28T08:32:08;23.60;88.60
25468;DHT22;13384;24.794;110.498;2022-10-28T08:34:59;23.60;88.30
25468;DHT22;13384;24.794;110.498;2022-10-28T08:37:51;23.60;87.80
25468;DHT22;13384;24.794;110.498;2022-10-28T08:44:32;23.60;88.70
25468;DHT22;13384;24.794;110.498;2022-10-28T08:46:58;23.60;88.60
25468;DHT22;13384;24.794;110.498;2022-10-28T08:49:32;23.60;88.70
25468;DHT22;13384;24.794;110.498;2022-10-28T08:52:30;23.60;88.80
25468;DHT22;13384;24.794;110.498;2022-10-28T08:55:41;23.60;88.90
25468;DHT22;13384;24.794;110.498;2022-10-28T08:58:36;23.60;88.80
25468;DHT22;13384;24.794;110.498;2022-10-28T09:01:55;23.60;88.80
25468;DHT22;13384;24.794;110.498;2022-10-28T09:04:55;23.60;88.80
25468;DHT22;13384;24.794;110.498;2022-10-28T09:07:25;23.60;88.80
25468;DHT22;13384;24.794;110.498;2022-10-28T09:09:55;23.70;88.60
25468;DHT22;13384;24.794;110.498;2022-10-28T09:15:24;23.70;88.10
25468;DHT22;13384;24.794;110.498;2022-10-28T09:18:50;23.70;88.30
25468;DHT22;13384;24.794;110.498;2022-10-28T09:22:07;23.70;88.60
25468;DHT22;13384;24.794;110.498;2022-10-28T09:31:47;23.70;88.70
25468;DHT22;13384;24.794;110.498;2022-10-28T09:37:32;23.70;87.70
25468;DHT22;13384;24.794;110.498;2022-10-28T09:40:28;23.60;88.40
25468;DHT22;13384;24.794;110.498;2022-10-28T09:43:30;23.60;88.30
25468;DHT22;13384;24.794;110.498;2022-10-28T09:46:26;23.60;88.50
25468;DHT22;13384;24.794;110.498;2022-10-28T09:49:34;23.60;88.90
25468;DHT22;13384;24.794;110.498;2022-10-28T09:55:14;23.50;86.70
25468;DHT22;13384;24.794;110.498;2022-10-28T09:57:48;23.50;86.00
25468;DHT22;13384;24.794;110.498;2022-10-28T10:00:41;23.50;86.60
25468;DHT22;13384;24.794;110.498;2022-10-28T10:03:33;23.50;86.40
25468;DHT22;13384;24.794;110.498;2022-10-28T10:06:31;23.50;86.70
25468;DHT22;13384;24.794;110.498;2022-10-28T10:09:26;23.40;86.30
25468;DHT22;13384;24.794;110.498;2022-10-28T10:12:31;23.40;86.80
25468;DHT22;13384;24.794;110.498;2022-10-28T10:15:37;23.40;86.70
25468;DHT22;13384;24.794;110.498;2022-10-28T10:18:29;23.40;86.90
25468;DHT22;13384;24.794;110.498;2022-10-28T10:24:35;23.40;87.70
25468;DHT22;13384;24.794;110.498;2022-10-28T10:30:00;23.40;87.60
25468;DHT22;13384;24.794;110.498;2022-10-28T10:32:32;23.40;87.50
25468;DHT22;13384;24.794;110.498;2022-10-28T10:35:27;23.40;87.70
25468;DHT22;13384;24.794;110.498;2022-10-28T10:38:19;23.40;87.60
25468;DHT22;13384;24.794;110.498;2022-10-28T10:41:39;23.40;88.10
25468;DHT22;13384;24.794;110.498;2022-10-28T10:47:16;23.40;87.80
25468;DHT22;13384;24.794;110.498;2022-10-28T10:49:48;23.40;88.00
25468;DHT22;13384;24.794;110.498;2022-10-28T10:52:56;23.30;87.80
25468;DHT22;13384;24.794;110.498;2022-10-28T10:55:40;23.40;88.50
25468;DHT22;13384;24.794;110.498;2022-10-28T10:59:01;23.30;88.20
25468;DHT22;13384;24.794;110.498;2022-10-28T11:01:58;23.30;88.10
25468;DHT22;13384;24.794;110.498;2022-10-28T11:04:30;23.30;88.10
25468;DHT22;13384;24.794;110.498;2022-10-28T11:07:11;23.30;87.90
25468;DHT22;13384;24.794;110.498;2022-10-28T11:09:48;23.30;88.30
25468;DHT22;13384;24.794;110.498;2022-10-28T11:12:28;23.30;88.20
25468;DHT22;13384;24.794;110.498;2022-10-28T11:15:25;23.30;88.40
25468;DHT22;13384;24.794;110.498;2022-10-28T11:18:20;23.30;88.50
25468;DHT22;13384;24.794;110.498;2022-10-28T11:21:03;23.30;88.40
25468;DHT22;13384;24.794;110.498;2022-10-28T11:24:21;23.30;88.50
25468;DHT22;13384;24.794;110.498;2022-10-28T11:27:40;23.30;88.40
25468;DHT22;13384;24.794;110.498;2022-10-28T11:41:28;23.30;88.70
25468;DHT22;13384;24.794;110.498;2022-10-28T11:56:47;23.30;89.40
25468;DHT22;13384;24.794;110.498;2022-10-28T12:03:00;23.30;89.50
25468;DHT22;13384;24.794;110.498;2022-10-28T12:09:07;23.20;89.30
25468;DHT22;13384;24.794;110.498;2022-10-28T12:24:16;23.20;89.00
25468;DHT22;13384;24.794;110.498;2022-10-28T12:26:55;23.20;89.60
25468;DHT22;13384;24.794;110.498;2022-10-28T12:29:36;23.20;89.70
25468;DHT22;13384;24.794;110.498;2022-10-28T12:32:17;23.20;89.60
25468;DHT22;13384;24.794;110.498;2022-10-28T12:35:34;23.20;89.70
25468;DHT22;13384;24.794;110.498;2022-10-28T12:38:40;23.20;89.60
25468;DHT22;13384;24.794;110.498;2022-10-28T12:41:18;23.20;89.60
25468;DHT22;13384;24.794;110.498;2022-10-28T12:44:02;23.20;89.40
25468;DHT22;13384;24.794;110.498;2022-10-28T12:55:47;23.20;89.20
25468;DHT22;13384;24.794;110.498;2022-10-28T13:01:58;23.10;89.70
25468;DHT22;13384;24.794;110.498;2022-10-28T13:04:43;23.20;89.90
25468;DHT22;13384;24.794;110.498;2022-10-28T13:19:01;23.10;89.30
25468;DHT22;13384;24.794;110.498;2022-10-28T13:21:45;23.10;89.60
25468;DHT22;13384;24.794;110.498;2022-10-28T13:27:11;23.10;89.30
25468;DHT22;13384;24.794;110.498;2022-10-28T13:29:40;23.10;89.60
25468;DHT22;13384;24.794;110.498;2022-10-28T13:32:33;23.10;89.20
25468;DHT22;13384;24.794;110.498;2022-10-28T13:35:24;23.10;89.50
25468;DHT22;13384;24.794;110.498;2022-10-28T13:38:23;23.10;88.80
25468;DHT22;13384;24.794;110.498;2022-10-28T13:47:23;23.10;89.60
25468;DHT22;13384;24.794;110.498;2022-10-28T13:50:09;23.00;88.10
25468;DHT22;13384;24.794;110.498;2022-10-28T13:56:42;23.00;89.70
25468;DHT22;13384;24.794;110.498;2022-10-28T14:03:24;23.10;90.00
25468;DHT22;13384;24.794;110.498;2022-10-28T14:06:31;23.00;89.70
25468;DHT22;13384;24.794;110.498;2022-10-28T14:09:30;23.00;89.40
25468;DHT22;13384;24.794;110.498;2022-10-28T14:14:37;23.00;89.00
25468;DHT22;13384;24.794;110.498;2022-10-28T14:26:21;23.00;89.50
25468;DHT22;13384;24.794;110.498;2022-10-28T14:29:47;23.00;89.90
25468;DHT22;13384;24.794;110.498;2022-10-28T14:33:24;22.90;89.90
25468;DHT22;13384;24.794;110.498;2022-10-28T14:36:03;22.90;89.70
25468;DHT22;13384;24.794;110.498;2022-10-28T14:39:41;22.90;89.60
25468;DHT22;13384;24.794;110.498;2022-10-28T14:42:59;23.00;90.10
25468;DHT22;13384;24.794;110.498;2022-10-28T14:48:55;23.00;90.10
25468;DHT22;13384;24.794;110.498;2022-10-28T14:51:40;22.90;89.00
25468;DHT22;13384;24.794;110.498;2022-10-28T14:54:27;22.90;89.80
25468;DHT22;13384;24.794;110.498;2022-10-28T14:57:04;22.90;90.10
25468;DHT22;13384;24.794;110.498;2022-10-28T15:00:03;22.90;90.10
25468;DHT22;13384;24.794;110.498;2022-10-28T15:02:53;22.90;90.00
25468;DHT22;13384;24.794;110.498;2022-10-28T15:05:29;22.90;89.90
25468;DHT22;13384;24.794;110.498;2022-10-28T15:08:24;22.90;90.00
25468;DHT22;13384;24.794;110.498;2022-10-28T15:10:55;22.90;90.20
25468;DHT22;13384;24.794;110.498;2022-10-28T15:13:27;22.90;90.10
25468;DHT22;13384;24.794;110.498;2022-10-28T15:15:59;22.90;90.00
25468;DHT22;13384;24.794;110.498;2022-10-28T15:18:53;22.90;90.10
25468;DHT22;13384;24.794;110.498;2022-10-28T15:22:35;22.90;90.00
25468;DHT22;13384;24.794;110.498;2022-10-28T15:26:08;22.90;89.60
25468;DHT22;13384;24.794;110.498;2022-10-28T15:29:00;22.90;88.90
25468;DHT22;13384;24.794;110.498;2022-10-28T15:31:31;22.90;90.10
25468;DHT22;13384;24.794;110.498;2022-10-28T15:34:28;22.80;89.60
25468;DHT22;13384;24.794;110.498;2022-10-28T15:37:27;22.80;89.60
25468;DHT22;13384;24.794;110.498;2022-10-28T15:40:25;22.90;89.80
25468;DHT22;13384;24.794;110.498;2022-10-28T15:43:30;22.80;90.60
25468;DHT22;13384;24.794;110.498;2022-10-28T15:46:19;22.80;90.20
25468;DHT22;13384;24.794;110.498;2022-10-28T15:48:54;22.80;89.90
25468;DHT22;13384;24.794;110.498;2022-10-28T15:51:23;22.90;90.20
25468;DHT22;13384;24.794;110.498;2022-10-28T15:53:53;22.90;90.10
25468;DHT22;13384;24.794;110.498;2022-10-28T15:56:24;22.90;90.30
25468;DHT22;13384;24.794;110.498;2022-10-28T15:59:18;22.90;90.00
25468;DHT22;13384;24.794;110.498;2022-10-28T16:02:40;22.90;90.00
25468;DHT22;13384;24.794;110.498;2022-10-28T16:05:43;22.90;90.00
25468;DHT22;13384;24.794;110.498;2022-10-28T16:08:24;22.90;90.10
25468;DHT22;13384;24.794;110.498;2022-10-28T16:11:03;22.90;89.80
25468;DHT22;13384;24.794;110.498;2022-10-28T16:13:37;22.80;90.20
25468;DHT22;13384;24.794;110.498;2022-10-28T16:16:32;22.80;90.30
25468;DHT22;13384;24.794;110.498;2022-10-28T16:19:26;22.80;90.20
25468;DHT22;13384;24.794;110.498;2022-10-28T16:22:40;22.80;90.00
25468;DHT22;13384;24.794;110.498;2022-10-28T16:26:17;22.80;90.40
25468;DHT22;13384;24.794;110.498;2022-10-28T16:28:46;22.80;90.70
25468;DHT22;13384;24.794;110.498;2022-10-28T16:31:38;22.80;90.30
25468;DHT22;13384;24.794;110.498;2022-10-28T16:34:28;22.70;90.40
25468;DHT22;13384;24.794;110.498;2022-10-28T16:37:21;22.80;90.10
25468;DHT22;13384;24.794;110.498;2022-10-28T16:39:50;22.70;90.30
25468;DHT22;13384;24.794;110.498;2022-10-28T16:43:13;22.70;90.20
25468;DHT22;13384;24.794;110.498;2022-10-28T16:46:00;22.70;90.40
25468;DHT22;13384;24.794;110.498;2022-10-28T16:49:09;22.70;90.30
25468;DHT22;13384;24.794;110.498;2022-10-28T16:51:38;22.80;90.40
25468;DHT22;13384;24.794;110.498;2022-10-28T16:54:29;22.80;90.40
25468;DHT22;13384;24.794;110.498;2022-10-28T16:56:58;22.80;90.20
25468;DHT22;13384;24.794;110.498;2022-10-28T16:59:27;22.70;90.40
25468;DHT22;13384;24.794;110.498;2022-10-28T17:02:22;22.70;90.40
25468;DHT22;13384;24.794;110.498;2022-10-28T17:05:33;22.80;90.40
25468;DHT22;13384;24.794;110.498;2022-10-28T17:08:05;22.80;90.40
25468;DHT22;13384;24.794;110.498;2022-10-28T17:10:38;22.80;90.40
25468;DHT22;13384;24.794;110.498;2022-10-28T17:13:36;22.80;90.30
25468;DHT22;13384;24.794;110.498;2022-10-28T17:16:40;22.70;90.40
25468;DHT22;13384;24.794;110.498;2022-10-28T17:19:09;22.70;90.30
25468;DHT22;13384;24.794;110.498;2022-10-28T17:21:57;22.70;90.40
25468;DHT22;13384;24.794;110.498;2022-10-28T17:24:26;22.70;90.40
25468;DHT22;13384;24.794;110.498;2022-10-28T17:27:30;22.70;90.40
25468;DHT22;13384;24.794;110.498;2022-10-28T17:30:19;22.70;90.40
25468;DHT22;13384;24.794;110.498;2022-10-28T17:33:36;22.70;90.40
25468;DHT22;13384;24.794;110.498;2022-10-28T17:36:08;22.70;90.50
25468;DHT22;13384;24.794;110.498;2022-10-28T17:39:09;22.70;90.40
25468;DHT22;13384;24.794;110.498;2022-10-28T17:41:53;22.70;90.40
25468;DHT22;13384;24.794;110.498;2022-10-28T17:44:57;22.70;90.50
25468;DHT22;13384;24.794;110.498;2022-10-28T17:47:46;22.70;90.50
25468;DHT22;13384;24.794;110.498;2022-10-28T17:50:38;22.70;90.50
25468;DHT22;13384;24.794;110.498;2022-10-28T17:53:21;22.60;90.50
25468;DHT22;13384;24.794;110.498;2022-10-28T17:56:12;22.70;90.50
25468;DHT22;13384;24.794;110.498;2022-10-28T17:58:43;22.60;90.50
25468;DHT22;13384;24.794;110.498;2022-10-28T18:01:35;22.70;90.60
25468;DHT22;13384;24.794;110.498;2022-10-28T18:04:06;22.70;90.50
25468;DHT22;13384;24.794;110.498;2022-10-28T18:06:42;22.60;90.50
25468;DHT22;13384;24.794;110.498;2022-10-28T18:09:33;22.70;90.60
25468;DHT22;13384;24.794;110.498;2022-10-28T18:12:24;22.70;90.50
25468;DHT22;13384;24.794;110.498;2022-10-28T18:14:54;22.70;90.40
25468;DHT22;13384;24.794;110.498;2022-10-28T18:17:53;22.70;90.50
25468;DHT22;13384;24.794;110.498;2022-10-28T18:20:55;22.70;90.60
25468;DHT22;13384;24.794;110.498;2022-10-28T18:23:27;22.60;90.60
25468;DHT22;13384;24.794;110.498;2022-10-28T18:28:51;22.70;90.50
25468;DHT22;13384;24.794;110.498;2022-10-28T18:31:59;22.70;90.60
25468;DHT22;13384;24.794;110.498;2022-10-28T18:35:01;22.70;90.60
25468;DHT22;13384;24.794;110.498;2022-10-28T18:37:50;22.70;90.60
25468;DHT22;13384;24.794;110.498;2022-10-28T18:40:46;22.70;90.50
25468;DHT22;13384;24.794;110.498;2022-10-28T18:43:35;22.70;90.60
25468;DHT22;13384;24.794;110.498;2022-10-28T18:46:25;22.70;90.60
25468;DHT22;13384;24.794;110.498;2022-10-28T18:48:55;22.70;90.60
25468;DHT22;13384;24.794;110.498;2022-10-28T18:51:39;22.70;90.50
25468;DHT22;13384;24.794;110.498;2022-10-28T18:54:39;22.70;90.60
25468;DHT22;13384;24.794;110.498;2022-10-28T18:57:29;22.70;90.60
25468;DHT22;13384;24.794;110.498;2022-10-28T19:00:01;22.70;90.60
25468;DHT22;13384;24.794;110.498;2022-10-28T19:03:21;22.70;90.70
25468;DHT22;13384;24.794;110.498;2022-10-28T19:05:52;22.60;90.60
25468;DHT22;13384;24.794;110.498;2022-10-28T19:08:58;22.70;90.60
25468;DHT22;13384;24.794;110.498;2022-10-28T19:11:49;22.70;90.60
25468;DHT22;13384;24.794;110.498;2022-10-28T19:14:41;22.70;90.60
25468;DHT22;13384;24.794;110.498;2022-10-28T19:17:25;22.70;90.60
25468;DHT22;13384;24.794;110.498;2022-10-28T19:20:09;22.70;90.60
25468;DHT22;13384;24.794;110.498;2022-10-28T19:23:36;22.70;90.70
25468;DHT22;13384;24.794;110.498;2022-10-28T19:26:25;22.70;90.60
25468;DHT22;13384;24.794;110.498;2022-10-28T19:29:18;22.70;90.70
25468;DHT22;13384;24.794;110.498;2022-10-28T19:32:06;22.70;90.70
25468;DHT22;13384;24.794;110.498;2022-10-28T19:34:35;22.70;90.60
25468;DHT22;13384;24.794;110.498;2022-10-28T19:37:46;22.70;90.70
25468;DHT22;13384;24.794;110.498;2022-10-28T19:40:15;22.70;90.70
25468;DHT22;13384;24.794;110.498;2022-10-28T19:43:06;22.70;90.70
25468;DHT22;13384;24.794;110.498;2022-10-28T19:46:15;22.70;90.60
25468;DHT22;13384;24.794;110.498;2022-10-28T19:49:05;22.60;90.60
25468;DHT22;13384;24.794;110.498;2022-10-28T19:52:00;22.60;90.60
25468;DHT22;13384;24.794;110.498;2022-10-28T19:54:51;22.70;90.60
25468;DHT22;13384;24.794;110.498;2022-10-28T19:57:46;22.70;90.70
25468;DHT22;13384;24.794;110.498;2022-10-28T20:00:29;22.70;90.60
25468;DHT22;13384;24.794;110.498;2022-10-28T20:03:20;22.70;90.70